sensor_id;sensor_type;location;lat;lon;timestamp;pressure;altitude;pressure_sealevel;temperature;humidity
11223;BME280;5668;52.012;8.724;2023-02-28T00:01:25;101662.72;;;3.25;75.18
11223;BME280;5668;52.012;8.724;2023-02-28T00:03:53;101662.72;;;3.25;75.48
11223;BME280;5668;52.012;8.724;2023-02-28T00:06:20;101660.19;;;3.23;75.77
11223;BME280;5668;52.012;8.724;2023-02-28T00:08:49;101653.34;;;3.22;75.67
11223;BME280;5668;52.012;8.724;2023-02-28T00:11:17;101656.81;;;3.21;74.90
11223;BME280;5668;52.012;8.724;2023-02-28T00:13:46;101658.53;;;3.19;74.85
11223;BME280;5668;52.012;8.724;2023-02-28T00:16:16;101665.38;;;3.20;74.53
11223;BME280;5668;52.012;8.724;2023-02-28T00:18:43;101668.97;;;3.10;74.43
11223;BME280;5668;52.012;8.724;2023-02-28T00:21:11;101669.25;;;2.93;74.16
11223;BME280;5668;52.012;8.724;2023-02-28T00:23:38;101669.41;;;2.84;74.08
11223;BME280;5668;52.012;8.724;2023-02-28T00:26:06;101673.06;;;2.69;75.34
11223;BME280;5668;52.012;8.724;2023-02-28T00:28:34;101678.22;;;2.68;75.71
11223;BME280;5668;52.012;8.724;2023-02-28T00:31:01;101673.09;;;2.68;75.88
11223;BME280;5668;52.012;8.724;2023-02-28T00:33:29;101671.50;;;2.61;75.26
11223;BME280;5668;52.012;8.724;2023-02-28T00:36:07;101675.88;;;2.53;76.74
11223;BME280;5668;52.012;8.724;2023-02-28T00:38:34;101673.44;;;2.45;77.04
11223;BME280;5668;52.012;8.724;2023-02-28T00:41:01;101673.44;;;2.44;77.57
11223;BME280;5668;52.012;8.724;2023-02-28T00:43:32;101669.19;;;2.43;78.00
11223;BME280;5668;52.012;8.724;2023-02-28T00:45:59;101672.69;;;2.39;78.30
11223;BME280;5668;52.012;8.724;2023-02-28T00:48:27;101675.16;;;2.43;78.19
11223;BME280;5668;52.012;8.724;2023-02-28T00:50:54;101669.09;;;2.49;78.60
11223;BME280;5668;52.012;8.724;2023-02-28T00:53:21;101676.72;;;2.55;78.77
11223;BME280;5668;52.012;8.724;2023-02-28T00:55:49;101675.72;;;2.63;77.78
11223;BME280;5668;52.012;8.724;2023-02-28T00:58:16;101685.97;;;2.65;77.36
11223;BME280;5668;52.012;8.724;2023-02-28T01:00:46;101673.09;;;2.66;78.10
11223;BME280;5668;52.012;8.724;2023-02-28T01:03:15;101668.81;;;2.68;78.50
11223;BME280;5668;52.012;8.724;2023-02-28T01:05:42;101665.31;;;2.71;78.32
11223;BME280;5668;52.012;8.724;2023-02-28T01:08:09;101674.78;;;2.70;77.39
11223;BME280;5668;52.012;8.724;2023-02-28T01:10:37;101667.94;;;2.69;77.69
11223;BME280;5668;52.012;8.724;2023-02-28T01:13:04;101667.13;;;2.67;78.61
11223;BME280;5668;52.012;8.724;2023-02-28T01:15:31;101667.09;;;2.69;78.33
11223;BME280;5668;52.012;8.724;2023-02-28T01:18:00;101669.66;;;2.70;78.40
11223;BME280;5668;52.012;8.724;2023-02-28T01:20:27;101667.06;;;2.70;77.76
11223;BME280;5668;52.012;8.724;2023-02-28T01:22:55;101675.66;;;2.68;78.36
11223;BME280;5668;52.012;8.724;2023-02-28T01:25:22;101673.09;;;2.68;78.31
11223;BME280;5668;52.012;8.724;2023-02-28T01:27:49;101673.97;;;2.67;77.75
11223;BME280;5668;52.012;8.724;2023-02-28T01:30:16;101668.00;;;2.65;77.28
11223;BME280;5668;52.012;8.724;2023-02-28T01:32:44;101667.16;;;2.64;77.17
11223;BME280;5668;52.012;8.724;2023-02-28T01:35:12;101668.00;;;2.63;77.23
11223;BME280;5668;52.012;8.724;2023-02-28T01:37:40;101664.66;;;2.61;76.97
11223;BME280;5668;52.012;8.724;2023-02-28T01:40:08;101665.50;;;2.62;77.60
11223;BME280;5668;52.012;8.724;2023-02-28T01:42:36;101663.81;;;2.59;76.74
11223;BME280;5668;52.012;8.724;2023-02-28T01:45:19;101669.81;;;2.58;77.59
11223;BME280;5668;52.012;8.724;2023-02-28T01:47:49;101668.19;;;2.54;77.57
11223;BME280;5668;52.012;8.724;2023-02-28T01:50:23;101666.47;;;2.53;77.22
11223;BME280;5668;52.012;8.724;2023-02-28T01:52:53;101665.63;;;2.53;77.45
11223;BME280;5668;52.012;8.724;2023-02-28T01:55:23;101662.22;;;2.51;76.31
11223;BME280;5668;52.012;8.724;2023-02-28T01:57:57;101667.38;;;2.49;76.73
11223;BME280;5668;52.012;8.724;2023-02-28T02:00:27;101669.09;;;2.49;77.11
11223;BME280;5668;52.012;8.724;2023-02-28T02:02:57;101671.69;;;2.47;76.86
11223;BME280;5668;52.012;8.724;2023-02-28T02:05:29;101668.31;;;2.45;76.86
11223;BME280;5668;52.012;8.724;2023-02-28T02:08:02;101667.47;;;2.43;76.17
11223;BME280;5668;52.012;8.724;2023-02-28T02:10:32;101670.03;;;2.43;76.16
11223;BME280;5668;52.012;8.724;2023-02-28T02:13:19;101665.78;;;2.41;76.06
11223;BME280;5668;52.012;8.724;2023-02-28T02:15:58;101663.28;;;2.39;76.37
11223;BME280;5668;52.012;8.724;2023-02-28T02:18:32;101664.13;;;2.38;76.63
11223;BME280;5668;52.012;8.724;2023-02-28T02:24:45;101659.13;;;2.30;76.34
11223;BME280;5668;52.012;8.724;2023-02-28T02:27:36;101666.81;;;2.29;76.68
11223;BME280;5668;52.012;8.724;2023-02-28T02:33:06;101660.06;;;2.25;75.87
11223;BME280;5668;52.012;8.724;2023-02-28T02:35:41;101663.22;;;2.42;76.07
11223;BME280;5668;52.012;8.724;2023-02-28T02:38:18;101657.38;;;2.32;76.32
11223;BME280;5668;52.012;8.724;2023-02-28T02:40:52;101655.72;;;2.28;76.01
11223;BME280;5668;52.012;8.724;2023-02-28T02:43:25;101651.47;;;2.26;76.37
11223;BME280;5668;52.012;8.724;2023-02-28T02:46:01;101654.09;;;2.23;76.60
11223;BME280;5668;52.012;8.724;2023-02-28T02:48:34;101652.41;;;2.20;76.27
11223;BME280;5668;52.012;8.724;2023-02-28T02:51:07;101650.75;;;2.18;75.70
11223;BME280;5668;52.012;8.724;2023-02-28T02:53:44;101659.31;;;2.17;75.89
11223;BME280;5668;52.012;8.724;2023-02-28T02:56:16;101655.91;;;2.15;76.43
11223;BME280;5668;52.012;8.724;2023-02-28T02:58:48;101660.19;;;2.13;76.10
11223;BME280;5668;52.012;8.724;2023-02-28T03:01:18;101663.63;;;2.12;76.67
11223;BME280;5668;52.012;8.724;2023-02-28T03:03:55;101671.38;;;2.09;75.91
11223;BME280;5668;52.012;8.724;2023-02-28T03:06:24;101665.41;;;2.07;76.42
11223;BME280;5668;52.012;8.724;2023-02-28T03:08:51;101662.00;;;2.05;76.81
11223;BME280;5668;52.012;8.724;2023-02-28T03:11:19;101672.28;;;2.05;77.15
11223;BME280;5668;52.012;8.724;2023-02-28T03:14:08;101667.16;;;2.05;76.35
11223;BME280;5668;52.012;8.724;2023-02-28T03:16:49;101671.41;;;2.04;76.53
11223;BME280;5668;52.012;8.724;2023-02-28T03:19:33;101666.34;;;2.01;77.40
11223;BME280;5668;52.012;8.724;2023-02-28T03:22:14;101669.78;;;2.00;77.05
11223;BME280;5668;52.012;8.724;2023-02-28T03:24:52;101667.22;;;1.99;77.69
11223;BME280;5668;52.012;8.724;2023-02-28T03:27:26;101665.59;;;1.94;76.88
11223;BME280;5668;52.012;8.724;2023-02-28T03:29:58;101668.16;;;1.93;77.56
11223;BME280;5668;52.012;8.724;2023-02-28T03:32:32;101667.31;;;1.92;77.25
11223;BME280;5668;52.012;8.724;2023-02-28T03:35:02;101660.50;;;1.91;77.82
11223;BME280;5668;52.012;8.724;2023-02-28T03:37:37;101661.34;;;1.90;77.69
11223;BME280;5668;52.012;8.724;2023-02-28T03:40:08;101659.66;;;1.89;77.15
11223;BME280;5668;52.012;8.724;2023-02-28T03:42:41;101660.50;;;1.88;77.92
11223;BME280;5668;52.012;8.724;2023-02-28T03:45:13;101662.28;;;1.86;77.72
11223;BME280;5668;52.012;8.724;2023-02-28T03:47:44;101664.03;;;1.81;76.17
11223;BME280;5668;52.012;8.724;2023-02-28T03:50:17;101667.59;;;1.67;76.83
11223;BME280;5668;52.012;8.724;2023-02-28T03:52:49;101654.84;;;1.65;76.56
11223;BME280;5668;52.012;8.724;2023-02-28T03:55:18;101663.34;;;1.67;77.18
11223;BME280;5668;52.012;8.724;2023-02-28T03:57:53;101659.91;;;1.68;77.00
11223;BME280;5668;52.012;8.724;2023-02-28T04:00:29;101659.06;;;1.69;77.05
11223;BME280;5668;52.012;8.724;2023-02-28T04:02:59;101657.34;;;1.68;78.09
11223;BME280;5668;52.012;8.724;2023-02-28T04:05:27;101666.75;;;1.68;77.62
11223;BME280;5668;52.012;8.724;2023-02-28T04:08:04;101660.78;;;1.67;77.70
11223;BME280;5668;52.012;8.724;2023-02-28T04:10:31;101665.03;;;1.67;77.40
11223;BME280;5668;52.012;8.724;2023-02-28T04:12:58;101663.41;;;1.61;76.93
11223;BME280;5668;52.012;8.724;2023-02-28T04:15:25;101662.56;;;1.59;77.56
11223;BME280;5668;52.012;8.724;2023-02-28T04:17:53;101662.56;;;1.59;77.40
11223;BME280;5668;52.012;8.724;2023-02-28T04:20:21;101657.44;;;1.59;78.34
11223;BME280;5668;52.012;8.724;2023-02-28T04:22:48;101650.63;;;1.60;78.30
11223;BME280;5668;52.012;8.724;2023-02-28T04:25:17;101665.13;;;1.59;78.00
11223;BME280;5668;52.012;8.724;2023-02-28T04:27:44;101665.19;;;1.58;78.07
11223;BME280;5668;52.012;8.724;2023-02-28T04:30:12;101660.94;;;1.55;77.84
11223;BME280;5668;52.012;8.724;2023-02-28T04:32:39;101660.94;;;1.53;77.71
11223;BME280;5668;52.012;8.724;2023-02-28T04:35:07;101658.38;;;1.52;78.83
11223;BME280;5668;52.012;8.724;2023-02-28T04:37:34;101656.69;;;1.51;78.90
11223;BME280;5668;52.012;8.724;2023-02-28T04:40:03;101651.59;;;1.49;78.29
11223;BME280;5668;52.012;8.724;2023-02-28T04:42:33;101651.59;;;1.49;79.16
11223;BME280;5668;52.012;8.724;2023-02-28T04:45:02;101662.69;;;1.50;78.66
11223;BME280;5668;52.012;8.724;2023-02-28T04:47:30;101655.88;;;1.49;78.34
11223;BME280;5668;52.012;8.724;2023-02-28T04:49:57;101655.88;;;1.49;78.83
11223;BME280;5668;52.012;8.724;2023-02-28T04:52:24;101651.63;;;1.46;78.54
11223;BME280;5668;52.012;8.724;2023-02-28T04:54:54;101661.88;;;1.46;78.30
11223;BME280;5668;52.012;8.724;2023-02-28T04:57:21;101655.91;;;1.46;78.45
11223;BME280;5668;52.012;8.724;2023-02-28T04:59:49;101658.47;;;1.44;79.14
11223;BME280;5668;52.012;8.724;2023-02-28T05:02:16;101659.31;;;1.43;78.93
11223;BME280;5668;52.012;8.724;2023-02-28T05:04:44;101663.59;;;1.43;78.24
11223;BME280;5668;52.012;8.724;2023-02-28T05:07:11;101667.91;;;1.41;78.34
11223;BME280;5668;52.012;8.724;2023-02-28T05:09:38;101666.22;;;1.40;79.15
11223;BME280;5668;52.012;8.724;2023-02-28T05:12:06;101673.03;;;1.39;79.13
11223;BME280;5668;52.012;8.724;2023-02-28T05:14:33;101672.19;;;1.37;78.51
11223;BME280;5668;52.012;8.724;2023-02-28T05:17:01;101671.34;;;1.37;78.33
11223;BME280;5668;52.012;8.724;2023-02-28T05:19:29;101670.50;;;1.36;77.82
11223;BME280;5668;52.012;8.724;2023-02-28T05:21:56;101672.25;;;1.34;78.00
11223;BME280;5668;52.012;8.724;2023-02-28T05:24:24;101681.63;;;1.34;78.26
11223;BME280;5668;52.012;8.724;2023-02-28T05:26:52;101678.25;;;1.32;78.26
11223;BME280;5668;52.012;8.724;2023-02-28T05:29:19;101682.50;;;1.31;78.44
11223;BME280;5668;52.012;8.724;2023-02-28T05:31:47;101675.69;;;1.30;78.15
11223;BME280;5668;52.012;8.724;2023-02-28T05:34:15;101678.28;;;1.27;77.87
11223;BME280;5668;52.012;8.724;2023-02-28T05:36:43;101679.16;;;1.26;77.80
11223;BME280;5668;52.012;8.724;2023-02-28T05:39:10;101684.28;;;1.25;77.70
11223;BME280;5668;52.012;8.724;2023-02-28T05:41:40;101686.84;;;1.25;77.68
11223;BME280;5668;52.012;8.724;2023-02-28T05:44:07;101688.56;;;1.23;77.56
11223;BME280;5668;52.012;8.724;2023-02-28T05:46:34;101688.56;;;1.23;77.53
11223;BME280;5668;52.012;8.724;2023-02-28T05:49:02;101688.59;;;1.20;77.89
11223;BME280;5668;52.012;8.724;2023-02-28T05:51:30;101686.91;;;1.19;77.85
11223;BME280;5668;52.012;8.724;2023-02-28T05:54:01;101690.31;;;1.17;77.43
11223;BME280;5668;52.012;8.724;2023-02-28T05:56:29;101686.91;;;1.15;77.13
11223;BME280;5668;52.012;8.724;2023-02-28T05:58:56;101685.22;;;1.14;77.18
11223;BME280;5668;52.012;8.724;2023-02-28T06:01:30;101682.66;;;1.13;76.77
11223;BME280;5668;52.012;8.724;2023-02-28T06:03:58;101691.25;;;1.12;76.85
11223;BME280;5668;52.012;8.724;2023-02-28T06:06:26;101681.00;;;1.09;77.37
11223;BME280;5668;52.012;8.724;2023-02-28T06:08:55;101687.00;;;1.08;77.21
11223;BME280;5668;52.012;8.724;2023-02-28T06:11:22;101687.00;;;1.06;77.47
11223;BME280;5668;52.012;8.724;2023-02-28T06:13:54;101688.75;;;1.04;77.52
11223;BME280;5668;52.012;8.724;2023-02-28T06:16:22;101689.59;;;1.02;77.15
11223;BME280;5668;52.012;8.724;2023-02-28T06:18:49;101691.31;;;1.00;77.09
11223;BME280;5668;52.012;8.724;2023-02-28T06:21:16;101695.59;;;0.99;77.31
11223;BME280;5668;52.012;8.724;2023-02-28T06:23:44;101698.16;;;0.99;77.71
11223;BME280;5668;52.012;8.724;2023-02-28T06:26:12;101699.84;;;1.00;77.21
11223;BME280;5668;52.012;8.724;2023-02-28T06:28:40;101707.59;;;0.94;76.45
11223;BME280;5668;52.012;8.724;2023-02-28T06:31:08;101700.00;;;0.82;76.31
11223;BME280;5668;52.012;8.724;2023-02-28T06:33:36;101706.03;;;0.72;76.38
11223;BME280;5668;52.012;8.724;2023-02-28T06:36:05;101709.50;;;0.62;77.38
11223;BME280;5668;52.012;8.724;2023-02-28T06:38:32;101711.31;;;0.48;77.34
11223;BME280;5668;52.012;8.724;2023-02-28T06:41:01;101715.56;;;0.47;78.15
11223;BME280;5668;52.012;8.724;2023-02-28T06:43:32;101716.41;;;0.49;78.20
11223;BME280;5668;52.012;8.724;2023-02-28T06:46:02;101722.44;;;0.44;78.01
11223;BME280;5668;52.012;8.724;2023-02-28T06:48:29;101718.22;;;0.36;78.57
11223;BME280;5668;52.012;8.724;2023-02-28T06:51:03;101726.72;;;0.32;78.90
11223;BME280;5668;52.012;8.724;2023-02-28T06:53:30;101725.06;;;0.28;79.19
11223;BME280;5668;52.012;8.724;2023-02-28T06:55:57;101722.53;;;0.19;79.24
11223;BME280;5668;52.012;8.724;2023-02-28T06:58:25;101731.91;;;0.16;80.03
11223;BME280;5668;52.012;8.724;2023-02-28T07:00:53;101725.94;;;0.20;80.23
11223;BME280;5668;52.012;8.724;2023-02-28T07:03:21;101735.28;;;0.25;80.09
11223;BME280;5668;52.012;8.724;2023-02-28T07:05:49;101737.84;;;0.28;80.35
11223;BME280;5668;52.012;8.724;2023-02-28T07:08:17;101744.63;;;0.34;80.26
11223;BME280;5668;52.012;8.724;2023-02-28T07:10:44;101744.63;;;0.34;80.45
11223;BME280;5668;52.012;8.724;2023-02-28T07:13:11;101745.47;;;0.37;80.96
11223;BME280;5668;52.012;8.724;2023-02-28T07:15:39;101750.56;;;0.41;80.79
11223;BME280;5668;52.012;8.724;2023-02-28T07:18:07;101745.44;;;0.44;80.81
11223;BME280;5668;52.012;8.724;2023-02-28T07:20:35;101754.78;;;0.46;80.87
11223;BME280;5668;52.012;8.724;2023-02-28T07:23:02;101751.38;;;0.49;81.06
11223;BME280;5668;52.012;8.724;2023-02-28T07:25:29;101763.28;;;0.51;80.58
11223;BME280;5668;52.012;8.724;2023-02-28T07:27:56;101762.41;;;0.54;80.74
11223;BME280;5668;52.012;8.724;2023-02-28T07:30:25;101765.81;;;0.57;80.84
11223;BME280;5668;52.012;8.724;2023-02-28T07:32:52;101765.81;;;0.59;80.55
11223;BME280;5668;52.012;8.724;2023-02-28T07:35:22;101767.50;;;0.60;80.87
11223;BME280;5668;52.012;8.724;2023-02-28T07:37:49;101760.66;;;0.62;80.97
11223;BME280;5668;52.012;8.724;2023-02-28T07:40:17;101758.09;;;0.65;81.24
11223;BME280;5668;52.012;8.724;2023-02-28T07:42:45;101758.06;;;0.68;81.09
11223;BME280;5668;52.012;8.724;2023-02-28T07:45:12;101754.66;;;0.72;81.72
11223;BME280;5668;52.012;8.724;2023-02-28T07:47:40;101743.56;;;0.73;81.75
11223;BME280;5668;52.012;8.724;2023-02-28T07:50:11;101750.34;;;0.77;81.68
11223;BME280;5668;52.012;8.724;2023-02-28T07:52:41;101746.91;;;0.81;82.05
11223;BME280;5668;52.012;8.724;2023-02-28T07:55:09;101752.00;;;0.87;82.46
11223;BME280;5668;52.012;8.724;2023-02-28T07:57:37;101754.50;;;0.96;83.09
11223;BME280;5668;52.012;8.724;2023-02-28T08:00:06;101748.47;;;1.02;83.09
11223;BME280;5668;52.012;8.724;2023-02-28T08:02:35;101751.81;;;1.08;83.14
11223;BME280;5668;52.012;8.724;2023-02-28T08:05:03;101741.56;;;1.11;83.41
11223;BME280;5668;52.012;8.724;2023-02-28T08:07:30;101739.81;;;1.16;83.46
11223;BME280;5668;52.012;8.724;2023-02-28T08:09:59;101747.44;;;1.23;83.53
11223;BME280;5668;52.012;8.724;2023-02-28T08:12:27;101746.53;;;1.30;84.47
11223;BME280;5668;52.012;8.724;2023-02-28T08:14:54;101750.72;;;1.37;85.63
11223;BME280;5668;52.012;8.724;2023-02-28T08:17:21;101744.69;;;1.47;86.79
11223;BME280;5668;52.012;8.724;2023-02-28T08:19:49;101745.41;;;1.58;86.45
11223;BME280;5668;52.012;8.724;2023-02-28T08:22:16;101747.09;;;1.62;86.90
11223;BME280;5668;52.012;8.724;2023-02-28T08:24:43;101742.75;;;1.67;86.93
11223;BME280;5668;52.012;8.724;2023-02-28T08:27:12;101735.84;;;1.75;87.07
11223;BME280;5668;52.012;8.724;2023-02-28T08:29:39;101745.16;;;1.84;87.50
11223;BME280;5668;52.012;8.724;2023-02-28T08:32:07;101745.91;;;1.93;89.06
11223;BME280;5668;52.012;8.724;2023-02-28T08:34:34;101748.31;;;2.04;88.87
11223;BME280;5668;52.012;8.724;2023-02-28T08:37:01;101743.09;;;2.13;90.16
11223;BME280;5668;52.012;8.724;2023-02-28T08:39:29;101747.25;;;2.25;88.94
11223;BME280;5668;52.012;8.724;2023-02-28T08:41:56;101737.69;;;2.36;89.40
11223;BME280;5668;52.012;8.724;2023-02-28T08:44:24;101745.25;;;2.45;87.99
11223;BME280;5668;52.012;8.724;2023-02-28T08:46:53;101745.16;;;2.51;87.16
11223;BME280;5668;52.012;8.724;2023-02-28T08:49:20;101746.78;;;2.57;87.13
11223;BME280;5668;52.012;8.724;2023-02-28T08:51:47;101752.66;;;2.66;86.48
11223;BME280;5668;52.012;8.724;2023-02-28T08:54:14;101756.84;;;2.73;85.67
11223;BME280;5668;52.012;8.724;2023-02-28T08:56:45;101746.47;;;2.80;85.11
11223;BME280;5668;52.012;8.724;2023-02-28T08:59:13;101751.50;;;2.86;85.53
11223;BME280;5668;52.012;8.724;2023-02-28T09:01:42;101749.69;;;2.94;85.46
11223;BME280;5668;52.012;8.724;2023-02-28T09:04:10;101748.75;;;2.99;85.07
11223;BME280;5668;52.012;8.724;2023-02-28T09:06:38;101754.63;;;3.06;84.24
11223;BME280;5668;52.012;8.724;2023-02-28T09:09:05;101750.22;;;3.14;82.94
11223;BME280;5668;52.012;8.724;2023-02-28T09:11:33;101753.47;;;3.24;81.36
11223;BME280;5668;52.012;8.724;2023-02-28T09:14:02;101749.97;;;3.29;81.22
11223;BME280;5668;52.012;8.724;2023-02-28T09:16:30;101739.56;;;3.37;80.29
11223;BME280;5668;52.012;8.724;2023-02-28T09:18:59;101741.16;;;3.44;79.86
11223;BME280;5668;52.012;8.724;2023-02-28T09:21:27;101741.09;;;3.47;79.93
11223;BME280;5668;52.012;8.724;2023-02-28T09:23:55;101747.88;;;3.51;79.99
11223;BME280;5668;52.012;8.724;2023-02-28T09:26:23;101741.75;;;3.60;79.12
11223;BME280;5668;52.012;8.724;2023-02-28T09:28:52;101741.66;;;3.63;79.00
11223;BME280;5668;52.012;8.724;2023-02-28T09:31:21;101744.22;;;3.64;78.10
11223;BME280;5668;52.012;8.724;2023-02-28T09:33:50;101747.63;;;3.66;78.98
11223;BME280;5668;52.012;8.724;2023-02-28T09:36:20;101743.31;;;3.67;78.82
11223;BME280;5668;52.012;8.724;2023-02-28T09:38:47;101743.22;;;3.73;79.11
11223;BME280;5668;52.012;8.724;2023-02-28T09:41:19;101748.22;;;3.79;79.27
11223;BME280;5668;52.012;8.724;2023-02-28T09:43:49;101748.97;;;3.85;79.19
11223;BME280;5668;52.012;8.724;2023-02-28T09:46:26;101750.53;;;3.93;77.38
11223;BME280;5668;52.012;8.724;2023-02-28T09:48:55;101753.06;;;3.96;77.58
11223;BME280;5668;52.012;8.724;2023-02-28T09:51:37;101754.63;;;4.03;77.39
11223;BME280;5668;52.012;8.724;2023-02-28T09:54:11;101754.47;;;4.10;77.20
11223;BME280;5668;52.012;8.724;2023-02-28T09:56:46;101754.31;;;4.19;76.99
11223;BME280;5668;52.012;8.724;2023-02-28T09:59:29;101752.41;;;4.27;75.95
11223;BME280;5668;52.012;8.724;2023-02-28T10:02:04;101749.69;;;4.35;75.80
11223;BME280;5668;52.012;8.724;2023-02-28T10:04:42;101748.63;;;4.44;75.26
11223;BME280;5668;52.012;8.724;2023-02-28T10:07:21;101753.44;;;4.59;75.38
11223;BME280;5668;52.012;8.724;2023-02-28T10:09:53;101758.41;;;4.68;75.55
11223;BME280;5668;52.012;8.724;2023-02-28T10:12:23;101754.78;;;4.75;75.69
11223;BME280;5668;52.012;8.724;2023-02-28T10:14:53;101752.81;;;4.88;75.65
11223;BME280;5668;52.012;8.724;2023-02-28T10:17:23;101742.25;;;4.98;75.66
11223;BME280;5668;52.012;8.724;2023-02-28T10:19:58;101745.38;;;5.11;75.58
11223;BME280;5668;52.012;8.724;2023-02-28T10:22:40;101744.22;;;5.23;75.49
11223;BME280;5668;52.012;8.724;2023-02-28T10:25:20;101735.28;;;5.37;75.25
11223;BME280;5668;52.012;8.724;2023-02-28T10:27:48;101742.75;;;5.48;74.78
11223;BME280;5668;52.012;8.724;2023-02-28T10:30:16;101730.34;;;5.62;75.04
11223;BME280;5668;52.012;8.724;2023-02-28T10:32:49;101739.34;;;5.78;73.29
11223;BME280;5668;52.012;8.724;2023-02-28T10:35:20;101736.38;;;5.94;71.32
11223;BME280;5668;52.012;8.724;2023-02-28T10:37:51;101729.94;;;6.08;68.88
11223;BME280;5668;52.012;8.724;2023-02-28T10:40:32;101735.50;;;6.24;68.56
11223;BME280;5668;52.012;8.724;2023-02-28T10:43:02;101734.22;;;6.39;68.03
11223;BME280;5668;52.012;8.724;2023-02-28T10:45:31;101731.13;;;6.55;66.45
11223;BME280;5668;52.012;8.724;2023-02-28T10:48:01;101724.72;;;6.69;66.52
11223;BME280;5668;52.012;8.724;2023-02-28T10:50:34;101731.38;;;6.76;61.82
11223;BME280;5668;52.012;8.724;2023-02-28T10:53:22;101725.03;;;6.84;61.08
11223;BME280;5668;52.012;8.724;2023-02-28T10:55:58;101728.91;;;6.99;60.63
11223;BME280;5668;52.012;8.724;2023-02-28T10:58:27;101731.81;;;7.15;62.88
11223;BME280;5668;52.012;8.724;2023-02-28T11:00:54;101720.13;;;7.29;63.22
11223;BME280;5668;52.012;8.724;2023-02-28T11:03:30;101717.00;;;7.45;59.89
11223;BME280;5668;52.012;8.724;2023-02-28T11:05:58;101714.16;;;7.52;58.86
11223;BME280;5668;52.012;8.724;2023-02-28T11:08:27;101712.38;;;7.54;56.00
11223;BME280;5668;52.012;8.724;2023-02-28T11:10:56;101711.47;;;7.55;53.54
11223;BME280;5668;52.012;8.724;2023-02-28T11:13:27;101719.88;;;7.62;55.05
11223;BME280;5668;52.012;8.724;2023-02-28T11:15:57;101713.53;;;7.70;56.00
11223;BME280;5668;52.012;8.724;2023-02-28T11:18:29;101705.22;;;7.86;56.46
11223;BME280;5668;52.012;8.724;2023-02-28T11:20:58;101705.78;;;7.94;55.60
11223;BME280;5668;52.012;8.724;2023-02-28T11:23:30;101704.63;;;8.02;56.08
11223;BME280;5668;52.012;8.724;2023-02-28T11:26:00;101707.88;;;8.07;54.40
11223;BME280;5668;52.012;8.724;2023-02-28T11:28:30;101709.78;;;8.02;51.06
11223;BME280;5668;52.012;8.724;2023-02-28T11:31:05;101697.19;;;7.93;50.09
11223;BME280;5668;52.012;8.724;2023-02-28T11:33:40;101700.03;;;7.86;52.75
11223;BME280;5668;52.012;8.724;2023-02-28T11:36:12;101703.31;;;7.91;53.64
11223;BME280;5668;52.012;8.724;2023-02-28T11:38:41;101695.16;;;8.01;53.83
11223;BME280;5668;52.012;8.724;2023-02-28T11:41:32;101698.19;;;8.12;52.78
11223;BME280;5668;52.012;8.724;2023-02-28T11:44:29;101699.53;;;8.23;52.84
11223;BME280;5668;52.012;8.724;2023-02-28T11:47:05;101700.97;;;8.31;54.76
11223;BME280;5668;52.012;8.724;2023-02-28T11:49:40;101699.09;;;8.35;52.30
11223;BME280;5668;52.012;8.724;2023-02-28T11:52:21;101688.00;;;8.31;49.65
11223;BME280;5668;52.012;8.724;2023-02-28T11:55:11;101691.56;;;8.27;51.22
11223;BME280;5668;52.012;8.724;2023-02-28T11:58:01;101686.22;;;8.33;49.88
11223;BME280;5668;52.012;8.724;2023-02-28T12:00:40;101687.25;;;8.28;49.52
11223;BME280;5668;52.012;8.724;2023-02-28T12:03:18;101670.38;;;8.41;52.41
11223;BME280;5668;52.012;8.724;2023-02-28T12:05:54;101672.38;;;8.56;51.73
11223;BME280;5668;52.012;8.724;2023-02-28T12:08:34;101667.47;;;8.70;51.96
11223;BME280;5668;52.012;8.724;2023-02-28T12:11:13;101659.25;;;8.81;52.07
11223;BME280;5668;52.012;8.724;2023-02-28T12:13:51;101654.59;;;8.89;51.15
11223;BME280;5668;52.012;8.724;2023-02-28T12:16:47;101647.09;;;9.03;52.41
11223;BME280;5668;52.012;8.724;2023-02-28T12:19:20;101651.00;;;9.13;51.12
11223;BME280;5668;52.012;8.724;2023-02-28T12:22:09;101648.84;;;9.23;50.81
11223;BME280;5668;52.012;8.724;2023-02-28T12:24:46;101649.38;;;9.31;51.04
11223;BME280;5668;52.012;8.724;2023-02-28T12:27:20;101653.38;;;9.38;49.93
11223;BME280;5668;52.012;8.724;2023-02-28T12:29:52;101652.97;;;9.47;50.79
11223;BME280;5668;52.012;8.724;2023-02-28T12:32:25;101647.53;;;9.53;51.17
11223;BME280;5668;52.012;8.724;2023-02-28T12:34:57;101642.97;;;9.58;50.13
11223;BME280;5668;52.012;8.724;2023-02-28T12:37:31;101635.06;;;9.61;48.95
11223;BME280;5668;52.012;8.724;2023-02-28T12:40:11;101632.13;;;9.69;50.16
11223;BME280;5668;52.012;8.724;2023-02-28T12:42:43;101637.16;;;9.72;48.11
11223;BME280;5668;52.012;8.724;2023-02-28T12:45:17;101626.34;;;9.62;48.80
11223;BME280;5668;52.012;8.724;2023-02-28T12:47:48;101626.94;;;9.49;48.47
11223;BME280;5668;52.012;8.724;2023-02-28T12:50:18;101627.28;;;9.41;49.14
11223;BME280;5668;52.012;8.724;2023-02-28T12:52:52;101628.41;;;9.36;49.64
11223;BME280;5668;52.012;8.724;2023-02-28T12:55:27;101619.28;;;9.27;49.48
11223;BME280;5668;52.012;8.724;2023-02-28T12:58:07;101627.38;;;9.19;48.01
11223;BME280;5668;52.012;8.724;2023-02-28T13:00:43;101619.53;;;9.21;48.70
11223;BME280;5668;52.012;8.724;2023-02-28T13:06:34;101621.63;;;9.13;50.06
11223;BME280;5668;52.012;8.724;2023-02-28T13:09:12;101603.53;;;9.11;49.87
11223;BME280;5668;52.012;8.724;2023-02-28T13:11:43;101611.38;;;9.10;49.28
11223;BME280;5668;52.012;8.724;2023-02-28T13:14:27;101610.72;;;9.05;48.52
11223;BME280;5668;52.012;8.724;2023-02-28T13:17:09;101607.44;;;9.01;47.76
11223;BME280;5668;52.012;8.724;2023-02-28T13:19:39;101602.38;;;8.98;47.91
11223;BME280;5668;52.012;8.724;2023-02-28T13:22:18;101604.31;;;8.93;47.65
11223;BME280;5668;52.012;8.724;2023-02-28T13:24:48;101607.03;;;8.90;48.20
11223;BME280;5668;52.012;8.724;2023-02-28T13:27:33;101606.13;;;8.91;48.34
11223;BME280;5668;52.012;8.724;2023-02-28T13:33:27;101604.91;;;8.79;48.93
11223;BME280;5668;52.012;8.724;2023-02-28T13:36:24;101606.78;;;8.76;48.39
11223;BME280;5668;52.012;8.724;2023-02-28T13:38:53;101610.53;;;8.69;48.13
11223;BME280;5668;52.012;8.724;2023-02-28T13:41:43;101607.59;;;8.56;47.93
11223;BME280;5668;52.012;8.724;2023-02-28T13:44:13;101606.81;;;8.54;49.19